Time;durP1;ratioP1;P1;durP2;ratioP2;P2;SDS_P1;SDS_P2;PMS_P1;PMS_P2;Temp;Humidity;BMP_temperature;BMP_pressure;BME280_temperature;BME280_humidity;BME280_pressure;Samples;Min_cycle;Max_cycle;Signal;HPM_P1;HPM_P2
2023/07/14 00:01:47;;;;;;;6.18;5.13;;;;;;;16.56;100.00;101762.28;5089693;28;20039;-37
2023/07/14 00:04:16;;;;;;;5.82;5.22;;;;;;;16.51;100.00;101764.94;5089893;28;20028;-37
2023/07/14 00:06:43;;;;;;;9.80;5.82;;;;;;;16.58;100.00;101767.47;5089826;28;20468;-37
2023/07/14 00:09:28;;;;;;;6.47;5.13;;;;;;;16.61;100.00;101761.53;5089472;28;20040;-37
2023/07/14 00:11:54;;;;;;;7.78;5.85;;;;;;;16.68;100.00;101756.72;5076103;28;20377;-37
2023/07/14 00:14:19;;;;;;;6.07;5.40;;;;;;;16.64;100.00;101761.88;5076182;28;20027;-37
2023/07/14 00:16:44;;;;;;;;;;;;;;;16.81;100.00;101750.94;5076651;28;20478;-37
2023/07/14 00:19:15;;;;;;;7.40;5.80;;;;;;;16.59;100.00;101747.28;5076901;28;19912;-37
2023/07/14 00:21:41;;;;;;;6.22;5.38;;;;;;;16.51;100.00;101734.06;5076416;28;20029;-37
2023/07/14 00:24:11;;;;;;;6.32;4.63;;;;;;;16.54;100.00;101742.56;5076321;28;20083;-37
2023/07/14 00:26:37;;;;;;;7.90;5.13;;;;;;;16.59;100.00;101752.75;5075835;28;20039;-37
2023/07/14 00:29:25;;;;;;;5.22;4.70;;;;;;;16.55;100.00;101754.34;5075995;28;20028;-37
2023/07/14 00:31:50;;;;;;;7.05;5.35;;;;;;;16.53;100.00;101748.28;5076070;28;20032;-37
2023/07/14 00:34:15;;;;;;;9.32;5.38;;;;;;;16.51;100.00;101750.44;5075601;28;20032;-37
2023/07/14 00:36:41;;;;;;;;;;;;;;;16.67;100.00;101755.88;5076953;28;20074;-37
2023/07/14 00:39:06;;;;;;;5.93;4.63;;;;;;;16.54;100.00;101756.22;5075298;28;19916;-37
2023/07/14 00:41:31;;;;;;;;;;;;;;;16.67;100.00;101741.41;5076539;28;20327;-37
2023/07/14 00:43:57;;;;;;;6.40;4.45;;;;;;;16.63;100.00;101748.44;5075642;28;19908;-37
2023/07/14 00:46:27;;;;;;;;;;;;;;;16.71;100.00;101737.97;5076417;28;20028;-37
2023/07/14 00:48:56;;;;;;;6.07;4.43;;;;;;;16.59;100.00;101734.47;5075308;28;20404;-37
2023/07/14 00:51:23;;;;;;;7.13;4.40;;;;;;;16.58;100.00;101724.63;5076437;28;20032;-37
2023/07/14 00:53:48;;;;;;;6.45;4.28;;;;;;;16.62;100.00;101725.78;5075461;28;20032;-37
2023/07/14 00:56:14;;;;;;;;;;;;;;;16.72;100.00;101720.50;5075970;28;20025;-37
2023/07/14 00:58:42;;;;;;;7.88;4.43;;;;;;;16.67;100.00;101723.13;5075122;28;19953;-37
2023/07/14 01:01:13;;;;;;;4.95;3.92;;;;;;;16.59;100.00;101712.63;5075373;28;20472;-37
2023/07/14 01:03:43;;;;;;;6.70;4.43;;;;;;;16.59;100.00;101729.03;5075348;28;20021;-37
2023/07/14 01:06:18;;;;;;;7.70;4.40;;;;;;;16.60;100.00;101727.13;5075316;28;20046;-37
2023/07/14 01:08:57;;;;;;;6.93;4.30;;;;;;;16.54;100.00;101734.38;5075727;28;20376;-37
2023/07/14 01:11:33;;;;;;;5.47;4.30;;;;;;;16.54;100.00;101744.47;5074901;28;20050;-37
2023/07/14 01:14:03;;;;;;;5.77;4.20;;;;;;;16.51;100.00;101736.81;5075117;28;20027;-37
2023/07/14 01:16:30;;;;;;;4.60;4.00;;;;;;;16.50;100.00;101730.50;5074809;28;20028;-38
2023/07/14 01:18:56;;;;;;;5.93;4.43;;;;;;;16.52;100.00;101730.25;5075430;28;20032;-37
2023/07/14 01:21:21;;;;;;;7.07;4.13;;;;;;;16.44;100.00;101729.59;5074270;28;20475;-37
2023/07/14 01:23:53;;;;;;;;;;;;;;;16.61;100.00;101724.13;5075104;28;20025;-37
2023/07/14 01:26:22;;;;;;;6.18;3.80;;;;;;;16.47;100.00;101725.53;5075171;28;19947;-37
2023/07/14 01:28:47;;;;;;;4.63;3.95;;;;;;;16.48;100.00;101716.28;5074747;28;20036;-37
2023/07/14 01:31:16;;;;;;;;;;;;;;;16.58;100.00;101710.13;5075230;28;20035;-37
2023/07/14 01:33:41;;;;;;;7.47;4.40;;;;;;;16.41;100.00;101712.91;5074672;28;20382;-37
2023/07/14 01:36:07;;;;;;;;;;;;;;;16.55;100.00;101711.47;5075984;28;20032;-38
2023/07/14 01:38:33;;;;;;;4.35;3.55;;;;;;;16.34;100.00;101701.31;5075052;28;19943;-37
2023/07/14 01:41:00;;;;;;;6.28;4.00;;;;;;;16.35;100.00;101708.44;5074816;28;20029;-37
2023/07/14 01:43:26;;;;;;;6.57;4.40;;;;;;;16.31;100.00;101707.28;5074170;28;20032;-37
2023/07/14 01:45:59;;;;;;;;;;;;;;;16.45;100.00;101703.13;5075264;28;20103;-37
2023/07/14 01:48:36;;;;;;;7.35;4.22;;;;;;;16.22;100.00;101702.22;5074365;28;19915;-37
2023/07/14 01:51:07;;;;;;;5.65;4.18;;;;;;;16.23;100.00;101694.84;5074408;28;20028;-37
2023/07/14 01:53:39;;;;;;;7.05;4.22;;;;;;;16.31;100.00;101701.81;5074631;28;20025;-37
2023/07/14 01:56:07;;;;;;;5.65;3.55;;;;;;;16.34;100.00;101704.03;5074294;28;20024;-37
2023/07/14 01:58:39;;;;;;;7.15;4.85;;;;;;;16.24;100.00;101707.41;5074242;28;20457;-37
2023/07/14 02:01:06;;;;;;;7.15;3.60;;;;;;;16.34;100.00;101704.03;5074968;28;20078;-37
2023/07/14 02:03:45;;;;;;;4.45;3.53;;;;;;;16.35;100.00;101705.72;5073776;28;20025;-37
2023/07/14 02:06:11;;;;;;;6.40;4.38;;;;;;;16.32;100.00;101703.47;5072906;28;20496;-37
2023/07/14 02:08:36;;;;;;;;;;;;;;;16.44;100.00;101704.19;5074764;28;20067;-37
2023/07/14 02:11:02;;;;;;;4.60;3.83;;;;;;;16.32;100.00;101692.53;5074370;28;19955;-37
2023/07/14 02:13:27;;;;;;;;;;;;;;;16.43;100.00;101695.19;5074367;28;20259;-37
2023/07/14 02:15:54;;;;;;;6.43;4.28;;;;;;;16.27;100.00;101695.19;5074726;28;20309;-37
2023/07/14 02:18:25;;;;;;;7.80;4.05;;;;;;;16.31;100.00;101699.09;5073800;28;20086;-37
2023/07/14 02:20:52;;;;;;;6.95;4.45;;;;;;;16.30;100.00;101694.69;5074420;28;20403;-37
2023/07/14 02:23:23;;;;;;;6.07;3.78;;;;;;;16.30;100.00;101687.34;5073848;28;20377;-37
2023/07/14 02:26:29;;;;;;;5.55;4.15;;;;;;;16.38;100.00;101689.63;5073810;28;20040;-36
2023/07/14 02:28:57;;;;;;;6.57;4.25;;;;;;;16.39;100.00;101695.91;5073509;28;20476;-37
2023/07/14 02:31:41;;;;;;;7.22;5.07;;;;;;;16.34;100.00;101684.91;5073687;28;20503;-37
2023/07/14 02:34:10;;;;;;;10.15;4.70;;;;;;;16.32;100.00;101687.09;5074000;28;20424;-37
2023/07/14 02:36:44;;;;;;;6.07;4.25;;;;;;;16.34;100.00;101698.56;5073606;28;20103;-37
2023/07/14 02:39:10;;;;;;;5.95;4.07;;;;;;;16.30;100.00;101692.81;5074381;28;20111;-37
2023/07/14 02:41:38;;;;;;;;;;;;;;;16.39;100.00;101687.72;5074655;28;20496;-37
2023/07/14 02:44:07;;;;;;;4.90;3.47;;;;;;;16.20;100.00;101684.41;5074021;28;19915;-37
2023/07/14 02:46:49;;;;;;;5.75;4.45;;;;;;;16.10;100.00;101690.53;5073632;28;20523;-37
2023/07/14 02:49:15;;;;;;;6.90;4.03;;;;;;;16.06;100.00;101688.59;5073846;28;20039;-37
2023/07/14 02:51:40;;;;;;;;;;;;;;;16.18;100.00;101684.69;5073748;28;20021;-37
2023/07/14 02:54:06;;;;;;;5.47;4.17;;;;;;;16.01;100.00;101688.50;5073484;28;20280;-37
2023/07/14 02:56:32;;;;;;;;;;;;;;;16.13;100.00;101691.97;5074155;28;20255;-37
2023/07/14 02:58:57;;;;;;;9.20;4.85;;;;;;;15.91;100.00;101689.97;5073502;28;19966;-37
2023/07/14 03:01:23;;;;;;;;;;;;;;;16.05;100.00;101678.72;5073875;28;20029;-37
2023/07/14 03:03:49;;;;;;;6.10;4.28;;;;;;;15.95;100.00;101690.28;5074463;28;19909;-37
2023/07/14 03:06:16;;;;;;;;;;;;;;;16.03;100.00;101681.69;5073797;28;20387;-37
2023/07/14 03:08:41;;;;;;;4.63;4.20;;;;;;;15.87;100.00;101677.88;5073117;28;20420;-37
2023/07/14 03:11:08;;;;;;;;;;;;;;;15.99;100.00;101687.91;5074050;28;20060;-37
2023/07/14 03:13:35;;;;;;;4.95;4.32;;;;;;;15.84;100.00;101685.72;5073026;28;20001;-37
2023/07/14 03:16:00;;;;;;;5.50;4.90;;;;;;;15.67;100.00;101677.53;5073850;28;20093;-37
2023/07/14 03:18:25;;;;;;;;;;;;;;;15.89;100.00;101680.38;5074183;28;20021;-37
2023/07/14 03:20:59;;;;;;;5.90;4.23;;;;;;;15.83;100.00;101673.19;5073234;28;19942;-37
2023/07/14 03:23:24;;;;;;;6.68;4.93;;;;;;;15.71;100.00;101667.75;5072954;28;20750;-37
2023/07/14 03:26:01;;;;;;;;;;;;;;;15.89;100.00;101677.63;5073929;28;20095;-37
2023/07/14 03:28:27;;;;;;;6.45;4.32;;;;;;;15.81;100.00;101667.97;5073414;28;19991;-37
2023/07/14 03:30:52;;;;;;;;;;;;;;;15.91;100.00;101664.59;5073778;28;20453;-37
2023/07/14 03:33:17;;;;;;;9.23;4.65;;;;;;;15.77;100.00;101674.16;5073100;28;19913;-37
2023/07/14 03:35:43;;;;;;;;;;;;;;;15.88;100.00;101667.81;5073220;28;20033;-37
2023/07/14 03:38:09;;;;;;;5.73;4.87;;;;;;;15.71;100.00;101654.13;5072730;28;19912;-37
2023/07/14 03:40:34;;;;;;;8.05;5.38;;;;;;;15.70;100.00;101666.94;5073315;28;20275;-37
2023/07/14 03:43:00;;;;;;;;;;;;;;;15.87;100.00;101664.25;5073149;28;20408;-37
2023/07/14 03:45:25;;;;;;;;;;;;;;;15.91;100.00;101661.88;5074748;28;19908;-37
2023/07/14 03:47:51;;;;;;;;;;;;;;;15.93;100.00;101656.97;5077266;28;19963;-37
2023/07/14 03:50:16;;;;;;;;;;;;;;;15.91;100.00;101659.16;5076869;28;19908;-37
2023/07/14 03:52:44;;;;;;;;;;;;;;;15.88;100.00;101657.72;5077070;28;19913;-37
2023/07/14 03:55:10;;;;;;;;;;;;;;;15.88;100.00;101656.91;5076706;28;20371;-37
2023/07/14 03:57:36;;;;;;;;;;;;;;;15.88;100.00;101648.72;5076977;28;19934;-37
2023/07/14 04:00:11;;;;;;;;;;;;;;;15.87;100.00;101655.25;5076437;28;20432;-37
2023/07/14 04:02:37;;;;;;;;;;;;;;;15.85;100.00;101650.03;5077232;28;20268;-37
2023/07/14 04:05:02;;;;;;;;;;;;;;;15.86;100.00;101654.44;5076911;28;19912;-37
2023/07/14 04:07:27;;;;;;;;;;;;;;;15.88;100.00;101654.16;5078019;28;19919;-37
2023/07/14 04:09:53;;;;;;;;;;;;;;;15.90;100.00;101652.00;5077099;28;20379;-37
2023/07/14 04:12:18;;;;;;;;;;;;;;;15.87;100.00;101647.06;5077060;28;20253;-37
2023/07/14 04:14:43;;;;;;;;;;;;;;;15.86;100.00;101650.84;5076678;28;19920;-37
2023/07/14 04:17:09;;;;;;;;;;;;;;;15.84;100.00;101655.72;5076974;28;19926;-37
2023/07/14 04:19:34;;;;;;;;;;;;;;;15.88;100.00;101659.63;5077363;28;20333;-37
2023/07/14 04:21:59;;;;;;;;;;;;;;;15.92;100.00;101658.06;5076596;28;19912;-37
2023/07/14 04:24:24;;;;;;;;;;;;;;;15.92;100.00;101649.88;5076498;28;19920;-37
2023/07/14 04:26:50;;;;;;;;;;;;;;;15.92;100.00;101649.88;5076286;28;19958;-36
2023/07/14 04:29:15;;;;;;;;;;;;;;;15.92;100.00;101649.88;5076112;28;19957;-37
2023/07/14 04:31:40;;;;;;;;;;;;;;;15.97;100.00;101644.50;5076083;28;19916;-36
2023/07/14 04:34:05;;;;;;;;;;;;;;;16.00;100.00;101640.44;5076872;28;19919;-36
2023/07/14 04:36:31;;;;;;;;;;;;;;;16.02;100.00;101649.22;5076936;28;20344;-37
2023/07/14 04:39:01;;;;;;;;;;;;;;;16.02;100.00;101646.50;5076440;28;19913;-37
2023/07/14 04:41:27;;;;;;;;;;;;;;;16.01;100.00;101651.13;5076488;28;19912;-37
2023/07/14 04:43:52;;;;;;;;;;;;;;;16.04;100.00;101649.78;5075846;28;19919;-37
2023/07/14 04:46:17;;;;;;;;;;;;;;;16.07;100.00;101641.94;5075889;28;19912;-37
2023/07/14 04:48:44;;;;;;;;;;;;;;;16.11;100.00;101643.09;5074847;28;19920;-37
2023/07/14 04:51:09;;;;;;;;;;;;;;;16.15;100.00;101644.28;5076432;28;20250;-37
2023/07/14 04:53:34;;;;;;;;;;;;;;;16.19;100.00;101648.13;5076035;28;19935;-36
2023/07/14 04:55:59;;;;;;;;;;;;;;;16.26;100.00;101644.44;5075852;28;19919;-36
2023/07/14 04:58:24;;;;;;;;;;;;;;;16.29;100.00;101647.47;5075898;28;19916;-36
2023/07/14 05:00:50;;;;;;;;;;;;;;;16.33;100.00;101648.63;5075586;28;19912;-36
2023/07/14 05:03:15;;;;;;;;;;;;;;;16.37;100.00;101646.22;5075496;28;19957;-37
2023/07/14 05:05:40;;;;;;;;;;;;;;;16.36;100.00;101647.31;5076390;28;20003;-36
2023/07/14 05:08:07;;;;;;;;;;;;;;;16.40;100.00;101645.75;5076066;28;19920;-36
2023/07/14 05:10:33;;;;;;;;;;;;;;;16.43;100.00;101643.31;5075999;28;19927;-37
2023/07/14 05:12:59;;;;;;;;;;;;;;;16.44;100.00;101635.94;5075347;28;19912;-37
2023/07/14 05:15:25;;;;;;;;;;;;;;;16.45;100.00;101643.09;5075578;28;20374;-37
2023/07/14 05:17:50;;;;;;;;;;;;;;;16.48;100.00;101646.13;5075626;28;19912;-37
2023/07/14 05:20:16;;;;;;;;;;;;;;;16.54;100.00;101647.00;5075373;28;20264;-37
2023/07/14 05:22:43;;;;;;;;;;;;;;;16.57;100.00;101635.59;5075888;28;19916;-37
2023/07/14 05:25:08;;;;;;;;;;;;;;;16.57;100.00;101630.13;5075339;28;20272;-37
2023/07/14 05:27:35;;;;;;;;;;;;;;;16.56;100.00;101628.50;5075914;28;19999;-37
2023/07/14 05:30:01;;;;;;;;;;;;;;;16.59;100.00;101633.47;5075216;28;19916;-37
2023/07/14 05:32:26;;;;;;;;;;;;;;;16.59;100.00;101633.47;5075826;28;19919;-37
2023/07/14 05:34:52;;;;;;;;;;;;;;;16.63;100.00;101633.75;5075472;28;19962;-37
2023/07/14 05:37:17;;;;;;;;;;;;;;;16.68;100.00;101639.28;5075430;28;19927;-37
2023/07/14 05:39:43;;;;;;;;;;;;;;;16.72;100.00;101640.47;5075047;28;19913;-37
2023/07/14 05:42:09;;;;;;;;;;;;;;;16.72;100.00;101630.38;5074853;28;19919;-37
2023/07/14 05:44:34;;;;;;;;;;;;;;;16.73;100.00;101633.91;5075210;28;19913;-37
2023/07/14 05:46:59;;;;;;;;;;;;;;;16.72;100.00;101637.75;5075797;28;19912;-37
2023/07/14 05:49:25;;;;;;;;;;;;;;;16.72;100.00;101630.38;5074835;28;19912;-37
2023/07/14 05:51:50;;;;;;;;;;;;;;;16.77;100.00;101623.31;5075367;28;19916;-37
2023/07/14 05:54:16;;;;;;;;;;;;;;;16.86;100.00;101630.00;5075333;28;19912;-37
2023/07/14 05:56:41;;;;;;;;;;;;;;;16.96;100.00;101627.41;5074719;28;19974;-36
2023/07/14 05:59:07;;;;;;;;;;;;;;;17.05;100.00;101627.78;5074475;28;19922;-37
2023/07/14 06:01:32;;;;;;;;;;;;;;;17.12;100.00;101633.84;5075505;28;19912;-37
2023/07/14 06:03:57;;;;;;;;;;;;;;;17.19;100.00;101620.84;5074420;28;19920;-37
2023/07/14 06:06:23;;;;;;;;;;;;;;;17.28;100.00;101634.88;5075189;28;19962;-37
2023/07/14 06:08:49;;;;;;;;;;;;;;;17.34;100.00;101629.19;5073795;28;19912;-37
2023/07/14 06:11:14;;;;;;;;;;;;;;;17.30;100.00;101632.72;5074465;28;19951;-36
2023/07/14 06:13:40;;;;;;;;;;;;;;;17.28;100.00;101627.50;5074384;28;19955;-36
2023/07/14 06:16:05;;;;;;;;;;;;;;;17.28;100.00;101629.41;5074978;28;19913;-37
2023/07/14 06:18:30;;;;;;;;;;;;;;;17.20;100.00;101636.97;5074518;28;19917;-37
2023/07/14 06:20:57;;;;;;;;;;;;;;;17.14;100.00;101629.81;5074349;28;20019;-38
2023/07/14 06:23:22;;;;;;;;;;;;;;;17.10;100.00;101630.56;5073944;28;20368;-37
2023/07/14 06:25:47;;;;;;;;;;;;;;;17.08;100.00;101632.72;5074534;28;19919;-36
2023/07/14 06:28:13;;;;;;;;;;;;;;;17.06;100.00;101630.25;5074241;28;19912;-37
2023/07/14 06:30:38;;;;;;;;;;;;;;;16.92;100.00;101621.59;5074162;28;20425;-36
2023/07/14 06:33:03;;;;;;;;;;;;;;;16.90;100.00;101628.41;5074127;28;19930;-37
2023/07/14 06:35:28;;;;;;;;;;;;;;;16.96;100.00;101620.03;5074389;28;19959;-37
2023/07/14 06:37:57;;;;;;;;;;;;;;;17.07;100.00;101618.22;5074904;28;19968;-36
2023/07/14 06:40:23;;;;;;;;;;;;;;;17.13;100.00;101627.31;5073945;28;19967;-36
2023/07/14 06:42:48;;;;;;;;;;;;;;;17.16;100.00;101622.16;5074408;28;19955;-37
2023/07/14 06:45:14;;;;;;;;;;;;;;;17.19;100.00;101621.66;5073722;28;19913;-36
2023/07/14 06:47:39;;;;;;;;;;;;;;;17.23;100.00;101619.25;5074288;28;19912;-37
2023/07/14 06:50:05;;;;;;;;;;;;;;;17.31;100.00;101612.47;5073919;28;19919;-37
2023/07/14 06:52:30;;;;;;;;;;;;;;;17.36;100.00;101620.75;5073688;28;19912;-37
2023/07/14 06:54:57;;;;;;;;;;;;;;;17.49;100.00;101623.06;5074711;28;19912;-37
2023/07/14 06:57:22;;;;;;;;;;;;;;;17.65;100.00;101611.19;5074776;28;20375;-37
2023/07/14 06:59:47;;;;;;;;;;;;;;;17.73;99.28;101616.22;5074475;28;19935;-36
2023/07/14 07:02:13;;;;;;;;;;;;;;;17.79;99.99;101610.78;5074420;28;20249;-37
2023/07/14 07:04:38;;;;;;;;;;;;;;;17.83;99.60;101610.00;5073818;28;20035;-36
2023/07/14 07:07:04;;;;;;;;;;;;;;;17.89;98.21;101610.88;5073612;28;19958;-36
2023/07/14 07:09:29;;;;;;;;;;;;;;;17.96;98.96;101606.84;5074306;28;19920;-37
2023/07/14 07:11:55;;;;;;;;;;;;;;;18.05;98.77;101601.69;5073352;28;19912;-37
2023/07/14 07:14:20;;;;;;;;;;;;;;;18.12;97.81;101606.94;5074109;28;19978;-37
2023/07/14 07:16:45;;;;;;;;;;;;;;;18.13;94.77;101606.69;5074070;28;19913;-37
2023/07/14 07:19:10;;;;;;;;;;;;;;;18.11;95.90;101605.31;5073262;28;20392;-37
2023/07/14 07:21:35;;;;;;;;;;;;;;;18.12;96.13;101585.88;5076194;28;20391;-37
2023/07/14 07:24:03;;;;;;;;;;;;;;;18.18;96.09;101595.75;5077709;28;20276;-37
2023/07/14 07:26:28;;;;;;;;;;;;;;;18.23;96.73;101595.81;5077722;28;19912;-37
2023/07/14 07:28:53;;;;;;;;;;;;;;;18.22;93.47;101591.41;5078202;28;19919;-37
2023/07/14 07:31:21;;;;;;;;;;;;;;;18.20;92.84;101596.34;5078143;28;19912;-37
2023/07/14 07:33:46;;;;;;;;;;;;;;;18.31;95.15;101591.75;5078069;28;20073;-37
2023/07/14 07:36:15;;;;;;;;;;;;;;;18.47;94.32;101593.47;5078047;28;20391;-36
2023/07/14 07:38:41;;;;;;;;;;;;;;;18.63;94.11;101591.63;5077025;28;19919;-37
2023/07/14 07:41:07;;;;;;;;;;;;;;;18.69;92.71;101589.78;5077352;28;20007;-37
2023/07/14 07:43:35;;;;;;;;;;;;;;;18.75;94.24;101586.81;5077306;28;20005;-37
2023/07/14 07:46:00;;;;;;;;;;;;;;;18.84;92.32;101587.13;5076983;28;19966;-37
2023/07/14 07:48:25;;;;;;;;;;;;;;;18.96;91.73;101586.88;5077504;28;19916;-37
2023/07/14 07:50:51;;;;;;;;;;;;;;;19.12;89.87;101576.78;5077485;28;19987;-37
2023/07/14 07:53:16;;;;;;;;;;;;;;;19.19;90.27;101577.34;5077414;28;19912;-37
2023/07/14 07:55:41;;;;;;;;;;;;;;;19.19;88.73;101580.09;5076826;28;20452;-37
2023/07/14 07:58:06;;;;;;;;;;;;;;;19.18;89.82;101581.16;5076997;28;19969;-37
2023/07/14 08:00:32;;;;;;;;;;;;;;;19.18;88.70;101578.41;5076490;28;19917;-37
2023/07/14 08:02:57;;;;;;;;;;;;;;;19.14;88.80;101574.59;5076731;28;19924;-37
2023/07/14 08:05:24;;;;;;;;;;;;;;;19.15;89.73;101571.59;5077172;28;19919;-37
2023/07/14 08:07:49;;;;;;;;;;;;;;;19.18;88.59;101567.47;5076763;28;19919;-37
2023/07/14 08:10:14;;;;;;;;;;;;;;;19.15;85.88;101563.34;5076696;28;19916;-37
2023/07/14 08:12:39;;;;;;;;;;;;;;;19.11;84.77;101567.72;5076879;28;20387;-37
2023/07/14 08:15:05;;;;;;;;;;;;;;;19.14;85.78;101569.94;5076666;28;20280;-37
2023/07/14 08:17:34;;;;;;;;;;;;;;;19.28;86.37;101571.06;5077132;28;19999;-37
2023/07/14 08:20:00;;;;;;;;;;;;;;;19.37;85.94;101565.84;5076963;28;20249;-37
2023/07/14 08:22:28;;;;;;;;;;;;;;;19.39;83.69;101560.13;5077497;28;19913;-37
2023/07/14 08:24:54;;;;;;;;;;;;;;;19.43;84.29;101563.97;5075984;28;19912;-37
2023/07/14 08:27:20;;;;;;;;;;;;;;;19.48;84.03;101561.22;5076343;28;19991;-37
2023/07/14 08:29:45;;;;;;;;;;;;;;;19.49;84.95;101571.91;5076422;28;19959;-37
2023/07/14 08:32:10;;;;;;;;;;;;;;;19.55;84.58;101564.50;5076618;28;20265;-36
2023/07/14 08:34:35;;;;;;;;;;;;;;;19.55;83.07;101564.50;5076168;28;19951;-36
2023/07/14 08:37:00;;;;;;;;;;;;;;;19.58;84.83;101568.63;5076594;28;19916;-37
2023/07/14 08:39:26;;;;;;;;;;;;;;;19.64;83.67;101570.31;5075825;28;19966;-36
2023/07/14 08:41:53;;;;;;;;;;;;;;;19.67;82.18;101565.09;5075971;28;19912;-36
2023/07/14 08:44:18;;;;;;;;;;;;;;;19.73;83.74;101566.72;5076209;28;19912;-36
2023/07/14 08:46:57;;;;;;;;;;;;;;;19.80;84.72;101567.28;5076479;28;19912;-36
2023/07/14 08:49:22;;;;;;;;;;;;;;;19.90;84.20;101560.94;5076700;28;19912;-36
2023/07/14 08:51:52;;;;;;;;;;;;;;;20.00;84.32;101560.94;5076702;28;19935;-36
2023/07/14 08:54:20;;;;;;;;;;;;;;;20.10;81.97;101553.78;5075700;28;20368;-36
2023/07/14 08:56:45;;;;;;;;;;;;;;;20.14;83.15;101550.22;5076246;28;20355;-36
2023/07/14 08:59:17;;;;;;;;;;;;;;;20.32;81.06;101549.63;5076327;28;19952;-36
2023/07/14 09:01:48;;;;;;;;;;;;;;;20.55;79.40;101544.63;5075908;28;20421;-36
2023/07/14 09:04:20;;;;;;;;;;;;;;;20.81;80.61;101542.59;5075775;28;19919;-36
2023/07/14 09:06:46;;;;;;;;;;;;;;;21.00;74.93;101537.25;5076055;28;19912;-36
2023/07/14 09:09:34;;;;;;;;;;;;;;;21.16;76.74;101535.22;5075942;28;19922;-36
2023/07/14 09:12:06;;;;;;;;;;;;;;;21.21;71.57;101533.25;5075958;28;19912;-37
2023/07/14 09:14:31;;;;;;;;;;;;;;;21.21;74.21;101527.75;5075557;28;19961;-36
2023/07/14 09:16:59;;;;;;;;;;;;;;;21.26;74.72;101533.22;5076063;28;19912;-36
2023/07/14 09:19:42;;;;;;;;;;;;;;;21.28;74.46;101541.22;5075376;28;19919;-36
2023/07/14 09:22:14;;;;;;;;;;;;;;;21.33;75.81;101533.78;5075789;28;19999;-36
2023/07/14 09:24:52;;;;;;;;;;;;;;;21.48;74.38;101527.31;5075669;28;19912;-41
2023/07/14 09:27:21;;;;;;;;;;;;;;;21.70;74.66;101532.34;5075308;28;20003;-37
2023/07/14 09:29:47;;;;;;;;;;;;;;;21.78;71.31;101530.91;5075239;28;19947;-36
2023/07/14 09:32:34;;;;;;;;;;;;;;;21.86;72.41;101519.25;5075215;28;19951;-36
2023/07/14 09:35:09;;;;;;;;;;;;;;;21.97;74.50;101520.81;5075137;28;20375;-37
2023/07/14 09:37:43;;;;;;;;;;;;;;;22.00;71.66;101522.97;5075424;28;20011;-36
2023/07/14 09:40:17;;;;;;;;;;;;;;;21.99;70.84;101512.25;5075307;28;19913;-36
2023/07/14 09:42:45;;;;;;;;;;;;;;;22.00;73.05;101513.88;5075090;28;19912;-36
2023/07/14 09:45:19;;;;;;;;;;;;;;;22.05;74.03;101509.16;5075225;28;20042;-36
2023/07/14 09:47:46;;;;;;;;;;;;;;;22.09;73.03;101509.38;5074951;28;19913;-36
2023/07/14 09:50:16;;;;;;;;;;;;;;;22.13;74.43;101504.97;5075172;28;19923;-36
2023/07/14 09:52:48;;;;;;;;;;;;;;;22.17;74.19;101492.25;5075442;28;19920;-36
2023/07/14 09:55:14;;;;;;;;;;;;;;;22.24;72.04;101487.22;5075722;28;20272;-36
2023/07/14 09:57:41;;;;;;;;;;;;;;;22.36;72.38;101490.38;5075117;28;19919;-36
2023/07/14 10:00:27;;;;;;;;;;;;;;;22.48;72.46;101486.38;5074635;28;19917;-36
2023/07/14 10:03:10;;;;;;;;;;;;;;;22.52;70.70;101479.16;5074362;28;19916;-36
2023/07/14 10:05:51;;;;;;;;;;;;;;;22.54;72.54;101488.75;5075442;28;19946;-36
2023/07/14 10:08:24;;;;;;;;;;;;;;;22.62;71.55;101471.56;5074601;28;19912;-36
2023/07/14 10:10:49;;;;;;;;;;;;;;;22.78;73.09;101471.34;5074407;28;19913;-37
2023/07/14 10:13:17;;;;;;;;;;;;;;;22.84;71.70;101465.47;5074441;28;19918;-36
2023/07/14 10:15:49;;;;;;;;;;;;;;;22.77;68.82;101470.53;5074737;28;20431;-36
2023/07/14 10:18:15;;;;;;;;;;;;;;;22.71;69.80;101474.47;5074836;28;20378;-36
2023/07/14 10:20:42;;;;;;;;;;;;;;;22.72;69.62;101462.31;5074894;28;19916;-37
2023/07/14 10:23:15;;;;;;;;;;;;;;;22.74;69.59;101457.34;5074919;28;19916;-37
2023/07/14 10:25:40;;;;;;;;;;;;;;;22.72;71.98;101445.78;5074267;28;19966;-37
2023/07/14 10:28:13;;;;;;;;;;;;;;;22.69;69.73;101454.66;5074532;28;19916;-37
2023/07/14 10:30:57;;;;;;;;;;;;;;;22.60;68.50;101450.94;5074254;28;19912;-37
2023/07/14 10:33:29;;;;;;;;;;;;;;;22.60;71.64;101445.44;5075016;28;19920;-36
2023/07/14 10:36:06;;;;;;;;;;;;;;;22.80;72.33;101436.84;5073781;28;19912;-36
2023/07/14 10:38:39;;;;;;;;;;;;;;;22.92;68.23;101433.66;5074043;28;19916;-37
2023/07/14 10:41:08;;;;;;;;;;;;;;;22.92;67.81;101430.91;5074645;28;20280;-37
2023/07/14 10:43:33;;;;;;;;;;;;;;;22.97;69.98;101427.25;5074067;28;20334;-37
2023/07/14 10:46:01;;;;;;;;;;;;;;;22.98;70.17;101426.94;5074969;28;19966;-37
2023/07/14 10:48:29;;;;;;;;;;;;;;;22.84;68.39;101421.34;5073718;28;19970;-37
2023/07/14 10:50:58;;;;;;;;;;;;;;;22.74;69.03;101424.28;5074810;28;19912;-38
2023/07/14 10:53:31;;;;;;;;;;;;;;;22.71;70.92;101419.34;5073607;28;20390;-37
2023/07/14 10:55:59;;;;;;;;;;;;;;;22.68;70.96;101421.88;5073740;28;19912;-37
2023/07/14 10:58:27;;;;;;;;;;;;;;;22.60;70.31;101407.66;5073823;28;19916;-37
2023/07/14 11:01:01;;;;;;;;;;;;;;;22.55;72.91;101409.69;5074168;28;19923;-37
2023/07/14 11:03:26;;;;;;;;;;;;;;;22.44;70.97;101413.66;5073561;28;20380;-37
2023/07/14 11:05:58;;;;;;;;;;;;;;;22.42;72.56;101413.16;5073503;28;20007;-37
2023/07/14 11:08:28;;;;;;;;;;;;;;;22.32;69.77;101412.19;5073833;28;19970;-37
2023/07/14 11:10:53;;;;;;;;;;;;;;;22.31;71.90;101413.31;5074121;28;19965;-37
2023/07/14 11:13:37;;;;;;;;;;;;;;;22.38;72.00;101406.59;5074012;28;20303;-37
2023/07/14 11:16:11;;;;;;;;;;;;;;;22.61;71.80;101390.00;5074360;28;19913;-37
2023/07/14 11:18:40;;;;;;;;;;;;;;;22.79;69.13;101382.00;5073668;28;19912;-37
2023/07/14 11:21:05;;;;;;;;;;;;;;;22.98;70.55;101385.56;5074018;28;19951;-37
2023/07/14 11:23:31;;;;;;;;;;;;;;;23.27;71.14;101379.81;5073419;28;19924;-37
2023/07/14 11:25:56;;;;;;;;;;;;;;;23.39;68.41;101369.13;5073693;28;19989;-37
2023/07/14 11:28:40;;;;;;;;;;;;;;;23.38;68.82;101339.91;5073306;28;19913;-37
2023/07/14 11:31:17;;;;;;;;;;;;;;;23.27;68.77;101338.44;5073658;28;19954;-37
2023/07/14 11:34:01;;;;;;;;;;;;;;;23.22;67.05;101346.81;5073902;28;19936;-37
2023/07/14 11:36:31;;;;;;;;;;;;;;;23.17;63.97;101335.06;5074184;28;19913;-37
2023/07/14 11:39:01;;;;;;;;;;;;;;;23.12;67.10;101342.28;5073513;28;19912;-37
2023/07/14 11:41:27;;;;;;;;;;;;;;;23.12;68.43;101341.47;5073790;28;19912;-37
2023/07/14 11:43:52;;;;;;;;;;;;;;;23.21;67.28;101342.41;5073785;28;19962;-37
2023/07/14 11:46:19;;;;;;;;;;;;;;;23.42;67.64;101334.56;5073488;28;19912;-37
2023/07/14 11:48:47;;;;;;;;;;;;;;;23.66;67.98;101322.53;5073090;28;19956;-37
2023/07/14 11:51:14;;;;;;;;;;;;;;;23.82;65.89;101321.94;5073681;28;19912;-37
2023/07/14 11:53:41;;;;;;;;;;;;;;;23.94;65.46;101320.59;5073327;28;19912;-37
2023/07/14 11:56:17;;;;;;;;;;;;;;;24.00;63.63;101314.63;5073329;28;19919;-37
2023/07/14 11:58:43;;;;;;;;;;;;;;;24.13;65.61;101316.53;5073154;28;19920;-37
2023/07/14 12:01:17;;;;;;;;;;;;;;;24.25;61.55;101304.94;5073719;28;19924;-37
2023/07/14 12:03:47;;;;;;;;;;;;;;;24.32;60.27;101310.06;5073130;28;19912;-37
2023/07/14 12:06:18;;;;;;;;;;;;;;;24.40;61.04;101304.63;5074741;28;19912;-37
2023/07/14 12:08:44;;;;;;;;;;;;;;;24.42;61.74;101297.97;5077626;28;19912;-37
2023/07/14 12:11:23;;;;;;;;;;;;;;;24.43;60.61;101296.84;5077084;28;19962;-37
2023/07/14 12:13:50;;;;;;;;;;;;;;;24.43;61.77;101291.31;5076326;28;19912;-37
2023/07/14 12:16:39;;;;;;;;;;;;;;;24.39;63.53;101282.81;5077057;28;20027;-37
2023/07/14 12:19:18;;;;;;;;;;;;;;;24.42;64.09;101278.63;5077909;28;20007;-37